createdAt,value
2019-03-26T00:01:47.645Z,149332.14
2019-03-26T00:04:19.015Z,149332.14
2019-03-26T00:06:50.296Z,149338.48
2019-03-26T00:09:21.671Z,149325.80
2019-03-26T00:11:53.433Z,149319.45
2019-03-26T00:14:25.136Z,149311.87
2019-03-26T00:16:56.480Z,149337.20
2019-03-26T00:19:28.143Z,149330.86
2019-03-26T00:21:59.424Z,149323.30
2019-03-26T00:24:31.108Z,149311.87
2019-03-26T00:27:02.457Z,149320.73
2019-03-26T00:29:34.004Z,149349.89
2019-03-26T00:32:05.537Z,149333.42
2019-03-26T00:34:37.558Z,149332.14
2019-03-26T00:37:08.861Z,149332.14
2019-03-26T00:39:40.503Z,149330.86
2019-03-26T00:42:12.058Z,149323.30
2019-03-26T00:44:43.453Z,149318.22
2019-03-26T00:47:15.072Z,149314.39
2019-03-26T00:49:46.357Z,149319.45
2019-03-26T00:52:17.676Z,149318.22
2019-03-26T00:54:49.006Z,149311.87
2019-03-26T00:57:20.218Z,149323.30
2019-03-26T00:59:52.837Z,149309.33
2019-03-26T01:02:24.330Z,149310.61
2019-03-26T01:04:55.512Z,149322.02
2019-03-26T01:07:26.888Z,149306.81
2019-03-26T01:09:58.186Z,149300.47
2019-03-26T01:12:31.196Z,149302.98
2019-03-26T01:15:02.869Z,149299.20
2019-03-26T01:17:34.247Z,149294.13
2019-03-26T01:20:07.105Z,149294.13
2019-03-26T01:22:38.435Z,149294.13
2019-03-26T01:25:10.034Z,149289.08
2019-03-26T01:27:41.682Z,149284.00
2019-03-26T01:30:13.421Z,149282.73
2019-03-26T01:32:44.956Z,149263.70
2019-03-26T01:35:16.254Z,149282.73
2019-03-26T01:37:47.565Z,149275.11
2019-03-26T01:40:18.866Z,149301.70
2019-03-26T01:42:50.229Z,149281.45
2019-03-26T01:45:21.560Z,149280.17
2019-03-26T01:47:52.871Z,149275.11
2019-03-26T01:50:24.160Z,149276.39
2019-03-26T01:52:55.480Z,149291.58
2019-03-26T01:55:26.851Z,149281.45
2019-03-26T01:57:58.340Z,149296.64
2019-03-26T02:00:29.678Z,149284.00
2019-03-26T02:03:00.959Z,149295.41
2019-03-26T02:05:32.332Z,149292.86
2019-03-26T02:08:03.984Z,149281.45
2019-03-26T02:10:35.286Z,149287.80
2019-03-26T02:13:06.619Z,149282.73
2019-03-26T02:15:37.980Z,149281.45
2019-03-26T02:18:09.328Z,149282.73
2019-03-26T02:20:40.973Z,149281.45
2019-03-26T02:23:12.550Z,149268.77
2019-03-26T02:25:43.862Z,149256.09
2019-03-26T02:28:15.199Z,149263.70
2019-03-26T02:30:46.476Z,149256.09
2019-03-26T02:33:18.095Z,149256.09
2019-03-26T02:35:49.441Z,149268.77
2019-03-26T02:38:21.196Z,149253.58
2019-03-26T02:40:52.479Z,149259.92
2019-03-26T02:43:23.915Z,149257.36
2019-03-26T02:45:55.258Z,149245.97
2019-03-26T02:48:26.566Z,149251.02
2019-03-26T02:50:57.983Z,149238.39
2019-03-26T02:53:29.259Z,149240.91
2019-03-26T02:56:00.533Z,149233.28
2019-03-26T02:58:31.889Z,149233.28
2019-03-26T03:01:03.346Z,149225.70
2019-03-26T03:03:34.515Z,149234.56
2019-03-26T03:06:05.833Z,149235.83
2019-03-26T03:08:37.149Z,149252.31
2019-03-26T03:11:08.533Z,149253.58
2019-03-26T03:13:39.865Z,149244.69
2019-03-26T03:16:11.137Z,149243.45
2019-03-26T03:18:42.690Z,149240.91
2019-03-26T03:21:14.046Z,149253.58
2019-03-26T03:23:46.781Z,149237.11
2019-03-26T03:26:18.034Z,149242.17
2019-03-26T03:28:49.479Z,149243.45
2019-03-26T03:31:21.305Z,149240.91
2019-03-26T03:33:52.619Z,149230.77
2019-03-26T03:36:25.604Z,149238.39
2019-03-26T03:38:56.909Z,149230.77
2019-03-26T03:41:28.324Z,149224.44
2019-03-26T03:43:59.681Z,149233.28
2019-03-26T03:46:31.711Z,149230.77
2019-03-26T03:49:03.864Z,149225.70
2019-03-26T03:51:39.330Z,149220.66
2019-03-26T03:54:12.620Z,149219.38
2019-03-26T03:56:46.587Z,149234.56
2019-03-26T03:59:18.519Z,149232.05
2019-03-26T04:01:49.812Z,149223.16
2019-03-26T04:04:21.149Z,149235.83
2019-03-26T04:06:52.476Z,149225.70
2019-03-26T04:09:23.793Z,149232.05
2019-03-26T04:11:55.135Z,149225.70
2019-03-26T04:14:26.476Z,149237.11
2019-03-26T04:16:57.758Z,149235.83
2019-03-26T04:19:29.393Z,149240.91
2019-03-26T04:22:00.755Z,149243.45
2019-03-26T04:24:32.051Z,149245.97
2019-03-26T04:27:03.371Z,149232.05
2019-03-26T04:29:34.715Z,149228.22
2019-03-26T04:32:06.090Z,149237.11
2019-03-26T04:34:37.372Z,149244.69
2019-03-26T04:37:08.692Z,149243.45
2019-03-26T04:39:40.052Z,149244.69
2019-03-26T04:42:11.389Z,149257.36
2019-03-26T04:44:43.040Z,149249.80
2019-03-26T04:47:14.331Z,149245.97
2019-03-26T04:49:45.650Z,149254.86
2019-03-26T04:52:17.781Z,149251.02
2019-03-26T04:54:49.060Z,149253.58
2019-03-26T04:57:20.431Z,149240.91
2019-03-26T04:59:52.040Z,149256.09
2019-03-26T05:02:23.342Z,149243.45
2019-03-26T05:04:54.703Z,149248.52
2019-03-26T05:07:26.297Z,149226.98
2019-03-26T05:09:58.085Z,149223.16
2019-03-26T05:12:29.372Z,149230.77
2019-03-26T05:15:01.012Z,149224.44
2019-03-26T05:17:32.599Z,149223.16
2019-03-26T05:20:04.393Z,149232.05
2019-03-26T05:22:35.874Z,149228.22
2019-03-26T05:25:09.137Z,149225.70
2019-03-26T05:27:45.654Z,149214.31
2019-03-26T05:30:14.384Z,149226.98
2019-03-26T05:32:45.933Z,149228.22
2019-03-26T05:35:17.314Z,149220.66
2019-03-26T05:37:49.049Z,149244.69
2019-03-26T05:40:20.657Z,149243.45
2019-03-26T05:42:51.940Z,149237.11
2019-03-26T05:45:23.283Z,149235.83
2019-03-26T05:47:54.552Z,149230.77
2019-03-26T05:50:26.172Z,149218.09
2019-03-26T05:52:57.546Z,149225.70
2019-03-26T05:55:29.075Z,149244.69
2019-03-26T05:58:00.461Z,149225.70
2019-03-26T06:00:31.856Z,149220.66
2019-03-26T06:03:03.400Z,149228.22
2019-03-26T06:05:35.814Z,149238.39
2019-03-26T06:08:07.121Z,149229.50
2019-03-26T06:10:38.418Z,149235.83
2019-03-26T06:13:09.715Z,149238.39
2019-03-26T06:15:41.134Z,149251.02
2019-03-26T06:18:12.751Z,149256.09
2019-03-26T06:20:44.307Z,149266.27
2019-03-26T06:23:15.646Z,149267.50
2019-03-26T06:25:46.912Z,149270.05
2019-03-26T06:28:18.448Z,149282.73
2019-03-26T06:30:51.009Z,149296.64
2019-03-26T06:33:22.316Z,149316.95
2019-03-26T06:35:53.898Z,149337.20
2019-03-26T06:38:25.524Z,149354.97
2019-03-26T06:40:56.869Z,149375.27
2019-03-26T06:43:28.215Z,149379.06
2019-03-26T06:45:59.553Z,149372.70
2019-03-26T06:48:31.912Z,149376.50
2019-03-26T06:51:03.317Z,149376.50
2019-03-26T06:53:34.736Z,149382.84
2019-03-26T06:56:06.073Z,149400.59
2019-03-26T06:58:37.800Z,149396.81
2019-03-26T07:01:09.461Z,149396.81
2019-03-26T07:03:41.253Z,149391.75
2019-03-26T07:06:12.569Z,149380.33
2019-03-26T07:08:44.162Z,149403.16
2019-03-26T07:11:15.660Z,149396.81
2019-03-26T07:13:46.952Z,149400.59
2019-03-26T07:16:18.404Z,149399.31
2019-03-26T07:18:49.689Z,149401.88
2019-03-26T07:21:21.301Z,149395.53
2019-03-26T07:23:52.911Z,149395.53
2019-03-26T07:26:25.029Z,149408.22
2019-03-26T07:28:56.918Z,149410.78
2019-03-26T07:31:28.664Z,149413.28
2019-03-26T07:33:59.954Z,149410.78
2019-03-26T07:36:31.227Z,149423.41
2019-03-26T07:39:02.715Z,149437.39
2019-03-26T07:41:34.109Z,149467.83
2019-03-26T07:44:05.408Z,149498.23
2019-03-26T07:46:36.748Z,149504.58
2019-03-26T07:49:08.288Z,149546.50
2019-03-26T07:51:40.038Z,149571.84
2019-03-26T07:54:11.451Z,149593.44
2019-03-26T07:56:42.838Z,149612.44
2019-03-26T07:59:15.449Z,149658.13
2019-03-26T08:01:47.767Z,149689.88
2019-03-26T08:04:19.095Z,149698.73
2019-03-26T08:06:50.815Z,149729.22
2019-03-26T08:09:22.395Z,149745.70
2019-03-26T08:11:54.247Z,149729.22
2019-03-26T08:14:25.617Z,149741.91
2019-03-26T08:16:57.052Z,149762.20
2019-03-26T08:19:28.636Z,149776.19
2019-03-26T08:21:59.992Z,149754.61
2019-03-26T08:24:31.428Z,149748.27
2019-03-26T08:27:02.760Z,149750.78
2019-03-26T08:29:34.093Z,149717.78
2019-03-26T08:32:05.823Z,149750.78
2019-03-26T08:34:37.188Z,149779.97
2019-03-26T08:37:08.575Z,149818.09
2019-03-26T08:39:40.102Z,149828.23
2019-03-26T08:42:11.340Z,149882.81
2019-03-26T08:44:42.816Z,149870.16
2019-03-26T08:47:14.237Z,149859.95
2019-03-26T08:49:45.567Z,149903.16
2019-03-26T08:52:16.865Z,150002.25
2019-03-26T08:54:48.602Z,150048.03
2019-03-26T08:57:22.274Z,150098.86
2019-03-26T08:59:54.771Z,150119.17
2019-03-26T09:02:26.375Z,150095.06
2019-03-26T09:04:57.718Z,150045.47
2019-03-26T09:07:28.998Z,150042.97
2019-03-26T09:10:00.914Z,150022.61
2019-03-26T09:12:33.159Z,149984.47
2019-03-26T09:15:05.565Z,149981.91
2019-03-26T09:17:36.908Z,149979.39
2019-03-26T09:20:11.854Z,150032.75
2019-03-26T09:22:43.501Z,150035.31
2019-03-26T09:25:15.759Z,150037.84
2019-03-26T09:27:47.054Z,150323.89
2019-03-26T09:30:18.806Z,150610.20
2019-03-26T09:32:50.141Z,150718.42
2019-03-26T09:35:21.537Z,150682.81
2019-03-26T09:37:52.970Z,150640.78
2019-03-26T09:40:24.331Z,150620.37
2019-03-26T09:42:55.659Z,150549.13
2019-03-26T09:45:26.983Z,150477.84
2019-03-26T09:47:58.555Z,150406.58
2019-03-26T09:50:37.338Z,150320.03
2019-03-26T09:53:08.662Z,150303.52
2019-03-26T09:55:40.040Z,150259.02
2019-03-26T09:58:11.318Z,150225.97
2019-03-26T10:00:42.773Z,150106.50
2019-03-26T10:03:14.250Z,150097.58
2019-03-26T10:05:45.515Z,150035.31
2019-03-26T10:08:17.999Z,150025.17
2019-03-26T10:10:49.712Z,150078.50
2019-03-26T10:13:21.035Z,150123.02
2019-03-26T10:15:52.324Z,150156.05
2019-03-26T10:18:23.627Z,150166.20
2019-03-26T10:20:54.966Z,150126.81
2019-03-26T10:23:26.641Z,150119.17
2019-03-26T10:25:58.105Z,150098.86
2019-03-26T10:28:29.427Z,150089.94
2019-03-26T10:31:00.961Z,150124.25
2019-03-26T10:33:32.281Z,150116.66
2019-03-26T10:36:03.649Z,150120.45
2019-03-26T10:38:34.970Z,150172.56
2019-03-26T10:41:06.346Z,150203.09
2019-03-26T10:43:37.671Z,150204.38
2019-03-26T10:46:09.003Z,150276.83
2019-03-26T10:48:40.684Z,150331.48
2019-03-26T10:51:12.294Z,150404.06
2019-03-26T10:53:43.584Z,150452.42
2019-03-26T10:56:15.176Z,150503.31
2019-03-26T10:58:46.793Z,150549.13
2019-03-26T11:01:18.075Z,150606.41
2019-03-26T11:03:49.399Z,150587.30
2019-03-26T11:06:20.994Z,150530.03
2019-03-26T11:08:52.549Z,150549.13
2019-03-26T11:11:23.897Z,150531.31
2019-03-26T11:13:58.460Z,150619.14
2019-03-26T11:16:28.704Z,150668.78
2019-03-26T11:19:00.364Z,150603.84
2019-03-26T11:21:31.695Z,150643.30
2019-03-26T11:24:03.306Z,150690.41
2019-03-26T11:26:34.891Z,150670.06
2019-03-26T11:29:06.167Z,150854.78
2019-03-26T11:31:37.727Z,150937.56
2019-03-26T11:34:09.101Z,151059.94
2019-03-26T11:36:40.671Z,151181.12
2019-03-26T11:39:12.017Z,151230.89
2019-03-26T11:41:43.338Z,151183.69
2019-03-26T11:44:16.022Z,151283.19
2019-03-26T11:46:47.325Z,151368.72
2019-03-26T11:49:18.700Z,151307.39
2019-03-26T11:51:50.301Z,151276.81
2019-03-26T11:54:21.966Z,151345.70
2019-03-26T11:56:53.640Z,151306.16
2019-03-26T11:59:25.065Z,151248.75
2019-03-26T12:01:56.723Z,151089.31
2019-03-26T12:04:28.079Z,150956.70
2019-03-26T12:06:59.449Z,150836.94
2019-03-26T12:09:30.876Z,150735.02
2019-03-26T12:12:02.348Z,150587.30
2019-03-26T12:14:33.994Z,150532.59
2019-03-26T12:17:05.303Z,150480.41
2019-03-26T12:19:36.837Z,150439.69
2019-03-26T12:22:08.561Z,150472.77
2019-03-26T12:24:40.722Z,150533.83
2019-03-26T12:27:13.677Z,150589.86
2019-03-26T12:29:45.092Z,150568.19
2019-03-26T12:32:16.502Z,150615.30
2019-03-26T12:34:47.940Z,150633.13
2019-03-26T12:37:19.312Z,150602.55
2019-03-26T12:39:59.257Z,150582.20
2019-03-26T12:42:24.468Z,150517.28
2019-03-26T12:44:55.857Z,150516.00
2019-03-26T12:47:27.246Z,150509.69
2019-03-26T12:49:58.699Z,150524.94
2019-03-26T12:52:30.140Z,150513.48
2019-03-26T12:55:01.908Z,150535.11
2019-03-26T12:57:33.863Z,150558.02
2019-03-26T13:00:05.587Z,150582.20
2019-03-26T13:02:36.954Z,150568.19
2019-03-26T13:05:09.604Z,150523.66
2019-03-26T13:07:41.156Z,150600.03
2019-03-26T13:10:14.483Z,150615.30
2019-03-26T13:12:46.133Z,150572.03
2019-03-26T13:15:17.573Z,150545.28
2019-03-26T13:17:49.528Z,150526.22
2019-03-26T13:20:20.993Z,150474.05
2019-03-26T13:22:52.550Z,150386.20
2019-03-26T13:25:23.903Z,150379.84
2019-03-26T13:27:55.350Z,150334.05
2019-03-26T13:30:26.667Z,150293.34
2019-03-26T13:32:57.910Z,150252.66
2019-03-26T13:35:29.398Z,150302.28
2019-03-26T13:38:00.881Z,150354.42
2019-03-26T13:40:32.303Z,150418.03
2019-03-26T13:43:03.692Z,150471.48
2019-03-26T13:45:35.137Z,150507.13
2019-03-26T13:48:07.134Z,150518.56
2019-03-26T13:50:38.612Z,150524.94
2019-03-26T13:53:10.824Z,150467.69
2019-03-26T13:55:42.627Z,150419.31
2019-03-26T13:58:14.170Z,150346.78
2019-03-26T14:00:46.432Z,150275.55
2019-03-26T14:03:18.039Z,150252.66
2019-03-26T14:05:49.543Z,150246.30
2019-03-26T14:08:21.184Z,150220.89
2019-03-26T14:10:52.653Z,150234.84
2019-03-26T14:13:24.658Z,150234.84
2019-03-26T14:15:56.100Z,150259.02
2019-03-26T14:18:27.441Z,150265.38
2019-03-26T14:20:59.304Z,150273.03
2019-03-26T14:23:30.649Z,150259.02
2019-03-26T14:26:01.989Z,150261.58
2019-03-26T14:28:33.606Z,150262.81
2019-03-26T14:31:05.096Z,150256.50
2019-03-26T14:33:39.328Z,150236.13
2019-03-26T14:36:10.807Z,150220.89
2019-03-26T14:38:42.330Z,150211.97
2019-03-26T14:41:13.683Z,150206.89
2019-03-26T14:43:45.165Z,150164.92
2019-03-26T14:46:16.601Z,150156.05
2019-03-26T14:48:47.961Z,150150.97
2019-03-26T14:51:19.277Z,150152.25
2019-03-26T14:53:50.606Z,150153.48
2019-03-26T14:56:21.905Z,150124.25
2019-03-26T14:58:53.530Z,150106.50
2019-03-26T15:01:25.000Z,150105.22
2019-03-26T15:03:56.285Z,150079.78
2019-03-26T15:06:27.751Z,150096.30
2019-03-26T15:08:59.065Z,150073.42
2019-03-26T15:11:30.358Z,150088.70
2019-03-26T15:14:02.499Z,150091.22
2019-03-26T15:16:33.897Z,150087.42
2019-03-26T15:19:05.278Z,150081.06
2019-03-26T15:21:36.681Z,150088.70
2019-03-26T15:24:08.531Z,150083.63
2019-03-26T15:26:40.006Z,150077.27
2019-03-26T15:29:11.471Z,150091.22
2019-03-26T15:31:42.895Z,150095.06
2019-03-26T15:34:14.197Z,150097.58
2019-03-26T15:36:45.785Z,150143.33
2019-03-26T15:39:17.914Z,150170.06
2019-03-26T15:41:49.439Z,150187.80
2019-03-26T15:44:20.741Z,150177.64
2019-03-26T15:46:52.053Z,150186.58
2019-03-26T15:49:23.334Z,150194.16
2019-03-26T15:51:54.728Z,150159.84
2019-03-26T15:54:26.005Z,150158.61
2019-03-26T15:56:57.276Z,150187.80
2019-03-26T15:59:28.641Z,150189.09
2019-03-26T16:02:00.156Z,150176.36
2019-03-26T16:04:31.431Z,150185.30
2019-03-26T16:07:03.127Z,150186.58
2019-03-26T16:09:34.698Z,150173.84
2019-03-26T16:12:05.941Z,150152.25
2019-03-26T16:14:37.577Z,150139.53
2019-03-26T16:17:08.883Z,150136.97
2019-03-26T16:19:40.456Z,150130.61
2019-03-26T16:22:11.838Z,150111.58
2019-03-26T16:24:43.222Z,150114.09
2019-03-26T16:27:14.539Z,150093.78
2019-03-26T16:29:46.285Z,150074.70
2019-03-26T16:32:17.587Z,150079.78
2019-03-26T16:34:50.103Z,150069.62
2019-03-26T16:37:21.448Z,150067.06
2019-03-26T16:39:53.003Z,150046.75
2019-03-26T16:42:24.283Z,150050.56
2019-03-26T16:44:56.042Z,150045.47
2019-03-26T16:47:27.416Z,150050.56
2019-03-26T16:49:58.719Z,150034.03
2019-03-26T16:52:30.369Z,150016.25
2019-03-26T16:55:02.251Z,150002.25
2019-03-26T16:57:33.966Z,150009.89
2019-03-26T17:00:05.629Z,149998.41
2019-03-26T17:02:37.163Z,149992.05
2019-03-26T17:05:09.456Z,149997.17
2019-03-26T17:07:40.801Z,149989.53
2019-03-26T17:10:12.609Z,149974.31
2019-03-26T17:12:43.887Z,149953.95
2019-03-26T17:15:15.488Z,149946.31
2019-03-26T17:17:46.754Z,149947.59
2019-03-26T17:20:18.106Z,149946.31
2019-03-26T17:22:49.460Z,149941.25
2019-03-26T17:25:20.760Z,149939.97
2019-03-26T17:27:52.087Z,149931.09
2019-03-26T17:30:23.639Z,149929.81
2019-03-26T17:32:55.176Z,149932.37
2019-03-26T17:35:26.571Z,149931.09
2019-03-26T17:38:00.047Z,149924.75
2019-03-26T17:40:30.862Z,149926.03
2019-03-26T17:43:02.148Z,149912.03
2019-03-26T17:45:33.903Z,149908.23
2019-03-26T17:48:05.472Z,149903.16
2019-03-26T17:50:36.741Z,149917.11
2019-03-26T17:53:08.335Z,149909.52
2019-03-26T17:55:39.604Z,149899.38
2019-03-26T17:58:10.884Z,149894.25
2019-03-26T18:00:45.636Z,149886.66
2019-03-26T18:03:26.338Z,149890.45
2019-03-26T18:05:50.238Z,150145.89
2019-03-26T18:08:21.563Z,150124.25
2019-03-26T18:10:53.150Z,150157.33
2019-03-26T18:13:24.510Z,150298.44
2019-03-26T18:15:55.821Z,150344.22
2019-03-26T18:18:27.392Z,150382.41
2019-03-26T18:20:58.673Z,150406.58
2019-03-26T18:23:31.252Z,150387.48
2019-03-26T18:26:02.788Z,150340.41
2019-03-26T18:28:34.005Z,150360.75
2019-03-26T18:31:05.334Z,150340.41
2019-03-26T18:33:36.614Z,150354.42
2019-03-26T18:36:08.723Z,150335.33
2019-03-26T18:38:40.286Z,150374.75
2019-03-26T18:41:11.586Z,150345.50
2019-03-26T18:43:43.190Z,150384.92
2019-03-26T18:46:14.738Z,150377.31
2019-03-26T18:48:46.058Z,150349.30
2019-03-26T18:51:17.623Z,150485.50
2019-03-26T18:53:49.500Z,150298.44
2019-03-26T18:56:20.819Z,150199.25
2019-03-26T18:58:52.164Z,150129.38
2019-03-26T19:01:24.076Z,150059.47
2019-03-26T19:03:55.371Z,150037.84
2019-03-26T19:06:26.655Z,150032.75
2019-03-26T19:08:58.032Z,149976.83
2019-03-26T19:11:29.358Z,149955.23
2019-03-26T19:14:00.647Z,149931.09
2019-03-26T19:16:32.336Z,149934.89
2019-03-26T19:19:03.893Z,149913.31
2019-03-26T19:21:35.168Z,149895.53
2019-03-26T19:24:06.902Z,149887.94
2019-03-26T19:26:38.167Z,149862.53
2019-03-26T19:29:09.618Z,149847.30
2019-03-26T19:31:40.953Z,149839.67
2019-03-26T19:34:12.518Z,149842.19
2019-03-26T19:36:44.142Z,149832.03
2019-03-26T19:39:15.494Z,149823.17
2019-03-26T19:41:48.080Z,149816.81
2019-03-26T19:44:19.397Z,149823.17
2019-03-26T19:46:50.707Z,149824.44
2019-03-26T19:49:22.039Z,149814.25
2019-03-26T19:51:53.692Z,149810.45
2019-03-26T19:54:25.031Z,149796.47
2019-03-26T19:56:56.458Z,149790.17
2019-03-26T19:59:28.116Z,149788.89
2019-03-26T20:02:00.377Z,149781.25
2019-03-26T20:04:31.737Z,149788.89
2019-03-26T20:07:03.065Z,149788.89
2019-03-26T20:09:34.966Z,149769.83
2019-03-26T20:12:06.285Z,149779.97
2019-03-26T20:14:37.703Z,149769.83
2019-03-26T20:17:10.781Z,149763.48
2019-03-26T20:19:42.257Z,149760.97
2019-03-26T20:22:13.676Z,149755.84
2019-03-26T20:24:45.214Z,149753.34
2019-03-26T20:27:16.656Z,149753.34
2019-03-26T20:29:48.251Z,149748.27
2019-03-26T20:32:19.991Z,149748.27
2019-03-26T20:34:51.511Z,149741.91
2019-03-26T20:37:23.255Z,149738.12
2019-03-26T20:39:56.014Z,149741.91
2019-03-26T20:42:27.581Z,149735.56
2019-03-26T20:44:59.242Z,149745.70
2019-03-26T20:47:30.799Z,149736.84
2019-03-26T20:50:02.786Z,149735.56
2019-03-26T20:52:46.698Z,149725.42
2019-03-26T20:55:22.182Z,149722.86
2019-03-26T20:57:54.122Z,149717.78
2019-03-26T21:00:39.674Z,149720.34
2019-03-26T21:03:11.288Z,149730.50
2019-03-26T21:05:42.687Z,149722.86
2019-03-26T21:08:14.398Z,149712.72
2019-03-26T21:10:46.241Z,149705.09
2019-03-26T21:13:17.541Z,149706.36
2019-03-26T21:15:57.148Z,149701.30
2019-03-26T21:18:21.893Z,149705.09
2019-03-26T21:20:53.338Z,149694.94
2019-03-26T21:23:24.782Z,149694.94
2019-03-26T21:25:56.338Z,149687.31
2019-03-26T21:28:27.646Z,149700.02
2019-03-26T21:30:59.174Z,149687.31
2019-03-26T21:33:30.726Z,149688.59
2019-03-26T21:36:02.228Z,149686.08
2019-03-26T21:38:33.621Z,149683.52
2019-03-26T21:41:05.298Z,149682.23
2019-03-26T21:43:36.670Z,149688.59
2019-03-26T21:46:08.283Z,149682.23
2019-03-26T21:48:39.541Z,149680.97
2019-03-26T21:51:10.834Z,149680.97
2019-03-26T21:53:42.223Z,149683.52
2019-03-26T21:56:13.729Z,149684.81
2019-03-26T21:58:45.560Z,149678.45
2019-03-26T22:01:17.285Z,149673.38
2019-03-26T22:03:48.615Z,149683.52
2019-03-26T22:06:20.004Z,149677.17
2019-03-26T22:08:51.378Z,149668.31
2019-03-26T22:11:23.517Z,149667.03
2019-03-26T22:13:54.762Z,149665.75
2019-03-26T22:16:26.057Z,149660.69
2019-03-26T22:18:57.356Z,149658.13
2019-03-26T22:21:29.511Z,149649.25
2019-03-26T22:24:00.864Z,149651.81
2019-03-26T22:26:32.438Z,149649.25
2019-03-26T22:29:04.071Z,149646.70
2019-03-26T22:31:35.405Z,149641.63
2019-03-26T22:34:07.284Z,149640.41
2019-03-26T22:36:39.131Z,149640.41
2019-03-26T22:39:11.136Z,149641.63
2019-03-26T22:41:46.591Z,149632.78
2019-03-26T22:44:30.516Z,149626.42
2019-03-26T22:46:51.004Z,149630.22
2019-03-26T22:49:22.264Z,149618.80
2019-03-26T22:51:53.523Z,149616.28
2019-03-26T22:54:24.807Z,149606.14
2019-03-26T22:56:56.045Z,149615.00
2019-03-26T22:59:27.308Z,149613.72
2019-03-26T23:01:58.644Z,149606.14
2019-03-26T23:04:30.353Z,149613.72
2019-03-26T23:07:01.653Z,149609.94
2019-03-26T23:09:32.958Z,149602.31
2019-03-26T23:12:04.248Z,149597.23
2019-03-26T23:14:45.024Z,149597.23
2019-03-26T23:17:09.165Z,149606.14
2019-03-26T23:19:40.499Z,149588.38
2019-03-26T23:22:11.842Z,149583.25
2019-03-26T23:24:43.308Z,149585.81
2019-03-26T23:27:14.776Z,149573.13
2019-03-26T23:29:46.088Z,149576.97
2019-03-26T23:32:17.562Z,149570.61
2019-03-26T23:34:49.284Z,149552.84
2019-03-26T23:37:20.840Z,149552.84
2019-03-26T23:39:52.151Z,149543.94
2019-03-26T23:42:23.392Z,149538.83
2019-03-26T23:44:58.581Z,149538.83
2019-03-26T23:47:27.747Z,149542.72
2019-03-26T23:49:59.956Z,149559.19
2019-03-26T23:52:31.792Z,149541.38
2019-03-26T23:55:03.132Z,149542.72
2019-03-26T23:57:37.251Z,149533.75
